Time;durP1;ratioP1;P1;durP2;ratioP2;P2;SDS_P1;SDS_P2;PMS_P1;PMS_P2;Temp;Humidity;BMP_temperature;BMP_pressure;BME280_temperature;BME280_humidity;BME280_pressure;Samples;Min_cycle;Max_cycle;Signal;HPM_P1;HPM_P2
2022/10/03 00:00:10;;;;;;;;;;;;;;;13.05;82.73;101494.13;5027648;28;19924;-75
2022/10/03 00:02:49;;;;;;;;;;;;;;;13.03;83.07;101492.50;5031570;28;19932;-75
2022/10/03 00:05:27;;;;;;;;;;;;;;;12.76;84.23;101491.22;5049530;28;19931;-75
2022/10/03 00:08:03;;;;;;;;;;;;;;;12.99;83.42;101493.56;5061262;28;20308;-76
2022/10/03 00:10:35;;;;;;;;;;;;;;;13.26;82.12;101497.50;5048012;28;19947;-75
2022/10/03 00:13:16;;;;;;;;;;;;;;;13.26;81.72;101499.28;5048669;28;19924;-75
2022/10/03 00:15:47;;;;;;;;;;;;;;;13.22;82.41;101501.22;5046280;28;19932;-73
2022/10/03 00:18:21;;;;;;;;;;;;;;;12.91;83.33;101507.13;5049253;28;19924;-73
2022/10/03 00:21:06;;;;;;;;;;;;;;;13.09;82.60;101506.22;5038864;28;19924;-73
2022/10/03 00:23:37;;;;;;;;;;;;;;;13.14;82.69;101498.97;5046682;28;19924;-74
2022/10/03 00:28:55;;;;;;;;;;;;;;;12.92;83.53;101505.34;5048441;28;19924;-74
2022/10/03 00:31:24;;;;;;;;;;;;;;;12.97;83.12;101509.44;5048846;28;19933;-74
2022/10/03 00:34:01;;;;;;;;;;;;;;;13.33;81.53;101508.56;5055428;28;19974;-73
2022/10/03 00:36:36;;;;;;;;;;;;;;;13.38;80.75;101519.69;5040007;28;20339;-75
2022/10/03 00:39:16;;;;;;;;;;;;;;;13.29;81.33;101517.56;5048069;28;19954;-74
2022/10/03 00:42:07;;;;;;;;;;;;;;;13.05;82.18;101524.84;5038646;28;19931;-74
2022/10/03 00:44:51;;;;;;;;;;;;;;;13.09;81.99;101526.41;5049704;28;19924;-75
2022/10/03 00:47:28;;;;;;;;;;;;;;;13.06;82.51;101526.56;5036691;28;19932;-75
2022/10/03 00:50:05;;;;;;;;;;;;;;;13.28;80.64;101521.09;5027674;28;19925;-74
2022/10/03 00:52:45;;;;;;;;;;;;;;;13.25;81.51;101530.03;5041479;28;19931;-75
2022/10/03 00:55:18;;;;;;;;;;;;;;;13.09;81.83;101529.03;5042443;28;19928;-74
2022/10/03 00:57:55;;;;;;;;;;;;;;;13.04;82.40;101536.34;5043914;28;19931;-74
2022/10/03 01:00:23;;;;;;;;;;;;;;;12.96;82.32;101528.81;5051504;28;19924;-74
2022/10/03 01:03:00;;;;;;;;;;;;;;;12.98;82.90;101537.47;5032720;28;19929;-74
2022/10/03 01:05:33;;;;;;;;;;;;;;;12.82;83.12;101538.31;5047922;28;19931;-74
2022/10/03 01:08:23;;;;;;;;;;;;;;;12.97;82.80;101543.66;5047551;28;19924;-79
2022/10/03 01:10:57;;;;;;;;;;;;;;;12.69;84.48;101543.28;5033898;28;19924;-79
2022/10/03 01:13:32;;;;;;;;;;;;;;;12.83;84.10;101542.63;5048997;28;19951;-78
2022/10/03 01:16:06;;;;;;;;;;;;;;;12.76;84.48;101554.38;5048114;28;19936;-78
2022/10/03 01:18:39;;;;;;;;;;;;;;;12.78;84.40;101560.44;5038937;28;19924;-80
2022/10/03 01:21:10;;;;;;;;;;;;;;;12.71;84.86;101551.13;5048385;28;19924;-79
2022/10/03 01:23:51;;;;;;;;;;;;;;;12.92;83.49;101564.09;5039041;28;19932;-80
2022/10/03 01:26:35;;;;;;;;;;;;;;;12.91;84.21;101561.53;5028673;28;19932;-80
2022/10/03 01:31:54;;;;;;;;;;;;;;;13.22;81.47;101560.94;5048376;28;19931;-78
2022/10/03 01:34:23;;;;;;;;;;;;;;;13.00;82.92;101564.59;5039133;28;20579;-79
2022/10/03 01:36:54;;;;;;;;;;;;;;;13.09;82.90;101561.53;5047924;28;19932;-77
2022/10/03 01:39:25;;;;;;;;;;;;;;;12.80;83.85;101566.47;5038526;28;19924;-77
2022/10/03 01:41:57;;;;;;;;;;;;;;;12.78;84.43;101571.81;5049528;28;20380;-77
2022/10/03 01:44:29;;;;;;;;;;;;;;;12.98;82.91;101569.06;5048505;28;20355;-76
2022/10/03 01:47:05;;;;;;;;;;;;;;;13.06;83.12;101576.59;5036276;28;19931;-77
2022/10/03 01:49:36;;;;;;;;;;;;;;;13.35;81.50;101570.78;5047706;28;19935;-78
2022/10/03 01:52:06;;;;;;;;;;;;;;;13.30;82.41;101580.69;5037893;28;19936;-76
2022/10/03 01:54:37;;;;;;;;;;;;;;;13.07;83.72;101576.53;5047856;28;19935;-76
2022/10/03 01:57:11;;;;;;;;;;;;;;;13.18;83.42;101585.72;5047850;28;19975;-76
2022/10/03 01:59:42;;;;;;;;;;;;;;;13.15;83.42;101579.66;5047226;28;19931;-76
2022/10/03 02:02:10;;;;;;;;;;;;;;;13.17;84.13;101587.47;5046348;28;19924;-76
2022/10/03 02:04:43;;;;;;;;;;;;;;;13.07;84.52;101586.19;5037801;28;20303;-76
2022/10/03 02:07:15;;;;;;;;;;;;;;;12.80;85.57;101588.38;5046908;28;19925;-77
2022/10/03 02:09:49;;;;;;;;;;;;;;;12.90;85.51;101591.41;5047276;28;19925;-76
2022/10/03 02:12:23;;;;;;;;;;;;;;;13.01;85.36;101587.34;5047180;28;19932;-76
2022/10/03 02:14:55;;;;;;;;;;;;;;;13.00;85.21;101584.78;5047587;28;20299;-76
2022/10/03 02:17:29;;;;;;;;;;;;;;;13.29;83.61;101592.16;5036545;28;19925;-82
2022/10/03 02:20:00;;;;;;;;;;;;;;;13.37;83.06;101591.78;5047898;28;19928;-81
2022/10/03 02:22:30;;;;;;;;;;;;;;;13.35;83.29;101590.97;5039144;28;19924;-80
2022/10/03 02:25:04;;;;;;;;;;;;;;;13.44;83.02;101596.66;5049054;28;19932;-81
2022/10/03 02:27:51;;;;;;;;;;;;;;;13.38;82.61;101599.59;5049771;28;20528;-80
2022/10/03 02:30:21;;;;;;;;;;;;;;;13.26;83.19;101600.22;5048052;28;19931;-80
2022/10/03 02:33:11;;;;;;;;;;;;;;;13.50;81.82;101596.34;5049648;28;19924;-80
2022/10/03 02:35:59;;;;;;;;;;;;;;;13.04;83.63;101600.34;5052057;28;19925;-80
2022/10/03 02:38:34;;;;;;;;;;;;;;;13.00;84.17;101603.22;5042848;28;19933;-80
2022/10/03 02:41:13;;;;;;;;;;;;;;;13.33;82.73;101603.41;5052179;28;20372;-80
2022/10/03 02:43:58;;;;;;;;;;;;;;;13.25;82.93;101605.53;5046275;28;19931;-80
2022/10/03 02:46:44;;;;;;;;;;;;;;;13.25;82.40;101606.41;5052644;28;20272;-80
2022/10/03 02:49:30;;;;;;;;;;;;;;;13.27;82.41;101608.94;5051822;28;19977;-81
2022/10/03 02:52:24;;;;;;;;;;;;;;;13.07;83.73;101613.38;5043275;28;20007;-80
2022/10/03 02:54:58;;;;;;;;;;;;;;;13.08;84.05;101622.16;5053653;28;19991;-80
2022/10/03 02:57:48;;;;;;;;;;;;;;;12.78;84.69;101619.19;5053133;28;19925;-80
2022/10/03 03:00:17;;;;;;;;;;;;;;;13.01;84.06;101620.72;5042744;28;19931;-80
2022/10/03 03:03:04;;;;;;;;;;;;;;;12.78;84.86;101632.34;5052157;28;19944;-80
2022/10/03 03:05:45;;;;;;;;;;;;;;;12.73;85.53;101628.19;5041457;28;19931;-76
2022/10/03 03:08:20;;;;;;;;;;;;;;;12.84;85.32;101625.94;5016643;28;20285;-76
2022/10/03 03:11:05;;;;;;;;;;;;;;;13.03;84.17;101626.78;5040215;28;19925;-76
2022/10/03 03:13:49;;;;;;;;;;;;;;;12.85;85.18;101632.91;5048897;28;19924;-76
2022/10/03 03:16:36;;;;;;;;;;;;;;;12.79;86.32;101639.28;5049738;28;21611;-76
2022/10/03 03:19:15;;;;;;;;;;;;;;;12.87;85.80;101633.66;5041062;28;19939;-77
2022/10/03 03:21:49;;;;;;;;;;;;;;;13.13;84.79;101633.31;5048044;28;20407;-78
2022/10/03 03:24:22;;;;;;;;;;;;;;;13.22;84.30;101630.25;5049987;28;19931;-78
2022/10/03 03:27:00;;;;;;;;;;;;;;;13.14;84.03;101630.63;5050687;28;20346;-79
2022/10/03 03:29:32;;;;;;;;;;;;;;;13.22;84.11;101629.41;5049371;28;19924;-79
2022/10/03 03:32:02;;;;;;;;;;;;;;;12.88;85.40;101630.13;5046827;28;19941;-77
2022/10/03 03:34:31;;;;;;;;;;;;;;;13.28;83.45;101627.31;5048788;28;19925;-76
2022/10/03 03:37:01;;;;;;;;;;;;;;;13.32;82.56;101631.50;5039850;28;19924;-78
2022/10/03 03:39:50;;;;;;;;;;;;;;;13.33;82.35;101638.50;5049947;28;19925;-80
2022/10/03 03:42:35;;;;;;;;;;;;;;;13.10;83.38;101636.09;5035794;28;19924;-80
2022/10/03 03:45:06;;;;;;;;;;;;;;;13.17;82.99;101640.16;5048199;28;19932;-80
2022/10/03 03:47:48;;;;;;;;;;;;;;;12.86;84.60;101632.00;5040040;28;19957;-79
2022/10/03 03:50:22;;;;;;;;;;;;;;;13.06;84.36;101637.16;5049294;28;19925;-79
2022/10/03 03:52:58;;;;;;;;;;;;;;;12.94;84.41;101638.56;5040083;28;20308;-79
2022/10/03 03:55:33;;;;;;;;;;;;;;;12.90;84.94;101641.41;5043524;28;19925;-78
2022/10/03 03:58:04;;;;;;;;;;;;;;;13.09;84.96;101645.78;5019796;28;20008;-77
2022/10/03 04:00:38;;;;;;;;;;;;;;;12.76;86.37;101657.00;5029023;28;19924;-78
2022/10/03 04:03:12;;;;;;;;;;;;;;;12.90;86.53;101662.47;5056474;28;19931;-78
2022/10/03 04:05:52;;;;;;;;;;;;;;;13.03;86.06;101647.81;5048944;28;20491;-78
2022/10/03 04:08:33;;;;;;;;;;;;;;;13.13;85.72;101651.75;5049344;28;20096;-79
2022/10/03 04:11:11;;;;;;;;;;;;;;;13.01;86.58;101649.66;5048804;28;19979;-79
2022/10/03 04:13:47;;;;;;;;;;;;;;;13.04;86.40;101666.16;5049894;28;20387;-78
2022/10/03 04:18:56;;;;;;;;;;;;;;;13.05;85.96;101654.72;5050086;28;19964;-79
2022/10/03 04:19:13;;;;;;;;;;;;;;;13.35;83.95;101660.34;5033520;28;19939;-80
2022/10/03 04:21:49;;;;;;;;;;;;;;;13.35;83.59;101655.06;5049073;28;19974;-78
2022/10/03 04:24:23;;;;;;;;;;;;;;;13.19;83.74;101667.28;5039657;28;20303;-77
2022/10/03 04:26:58;;;;;;;;;;;;;;;13.11;83.88;101657.13;5048315;28;19924;-77
2022/10/03 04:29:41;;;;;;;;;;;;;;;13.28;83.62;101669.47;5044675;28;20334;-78
2022/10/03 04:32:14;;;;;;;;;;;;;;;13.21;83.44;101661.94;5048427;28;20472;-77
2022/10/03 04:34:48;;;;;;;;;;;;;;;12.85;86.53;101660.09;5042414;28;19928;-77
2022/10/03 04:37:20;;;;;;;;;;;;;;;13.04;86.22;101660.06;5048847;28;20284;-77
2022/10/03 04:39:53;;;;;;;;;;;;;;;12.84;86.90;101662.78;5047723;28;20373;-79
2022/10/03 04:42:27;;;;;;;;;;;;;;;12.76;87.30;101659.63;5038843;28;19924;-78
2022/10/03 04:45:11;;;;;;;;;;;;;;;12.92;86.88;101661.50;5048587;28;20525;-78
2022/10/03 04:47:42;;;;;;;;;;;;;;;12.95;86.55;101655.22;5017683;28;19994;-80
2022/10/03 04:50:18;;;;;;;;;;;;;;;12.86;86.92;101650.41;5052817;28;19932;-78
2022/10/03 04:52:48;;;;;;;;;;;;;;;12.88;87.04;101653.81;5038085;28;20261;-78
2022/10/03 04:55:21;;;;;;;;;;;;;;;13.24;84.95;101662.63;5047563;28;20560;-79
2022/10/03 04:57:52;;;;;;;;;;;;;;;13.17;84.82;101658.59;5039262;28;19925;-79
2022/10/03 05:00:22;;;;;;;;;;;;;;;13.26;84.14;101663.44;5045626;28;19924;-79
2022/10/03 05:02:54;;;;;;;;;;;;;;;12.96;84.74;101667.47;5048373;28;19928;-78
2022/10/03 05:05:41;;;;;;;;;;;;;;;12.90;84.94;101678.28;5052937;28;19924;-78
2022/10/03 05:08:14;;;;;;;;;;;;;;;12.88;84.82;101682.75;5044270;28;19925;-77
2022/10/03 05:10:47;;;;;;;;;;;;;;;13.19;84.15;101682.22;5030847;28;19925;-78
2022/10/03 05:13:19;;;;;;;;;;;;;;;13.28;83.24;101690.53;5028631;28;19928;-79
2022/10/03 05:15:51;;;;;;;;;;;;;;;13.26;83.78;101702.94;5031383;28;20295;-78
2022/10/03 05:18:20;;;;;;;;;;;;;;;13.11;84.93;101699.25;5047120;28;19928;-78
2022/10/03 05:20:52;;;;;;;;;;;;;;;13.03;84.89;101698.72;5047398;28;20383;-78
2022/10/03 05:23:24;;;;;;;;;;;;;;;13.23;84.16;101700.41;5047375;28;19936;-77
2022/10/03 05:25:57;;;;;;;;;;;;;;;13.39;84.16;101703.19;5026973;28;19924;-77
2022/10/03 05:28:33;;;;;;;;;;;;;;;12.92;86.31;101708.88;5030590;28;19925;-78
2022/10/03 05:31:03;;;;;;;;;;;;;;;13.17;85.57;101700.72;5046355;28;19974;-77
2022/10/03 05:33:34;;;;;;;;;;;;;;;12.87;86.68;101695.06;5036726;28;19925;-77
2022/10/03 05:36:08;;;;;;;;;;;;;;;13.00;86.32;101700.63;5047979;28;19931;-77
2022/10/03 05:38:48;;;;;;;;;;;;;;;12.92;86.66;101708.03;5032353;28;19931;-77
2022/10/03 05:41:21;;;;;;;;;;;;;;;12.90;86.63;101697.56;5041564;28;19931;-77
2022/10/03 05:43:57;;;;;;;;;;;;;;;13.22;84.88;101701.38;5047911;28;19928;-77
2022/10/03 05:46:33;;;;;;;;;;;;;;;13.17;84.37;101708.63;5041866;28;19928;-77
2022/10/03 05:49:07;;;;;;;;;;;;;;;13.29;83.66;101707.19;5050338;28;19939;-77
2022/10/03 05:51:45;;;;;;;;;;;;;;;12.97;84.46;101711.31;5052509;28;19925;-76
2022/10/03 05:54:30;;;;;;;;;;;;;;;13.21;83.79;101723.34;5051804;28;19931;-77
2022/10/03 05:57:06;;;;;;;;;;;;;;;12.94;84.67;101717.56;5030798;28;20308;-78
2022/10/03 05:59:42;;;;;;;;;;;;;;;13.02;84.79;101725.09;5046596;28;19968;-77
2022/10/03 06:02:24;;;;;;;;;;;;;;;12.94;85.01;101732.50;5047595;28;19937;-77
2022/10/03 06:05:05;;;;;;;;;;;;;;;13.19;84.23;101740.16;5012803;28;19931;-77
2022/10/03 06:07:40;;;;;;;;;;;;;;;13.35;83.47;101735.88;5048382;28;19924;-78
2022/10/03 06:10:21;;;;;;;;;;;;;;;13.39;82.92;101737.44;5036891;28;19924;-77
2022/10/03 06:12:55;;;;;;;;;;;;;;;13.53;83.32;101749.03;5047152;28;19924;-78
2022/10/03 06:15:32;;;;;;;;;;;;;;;13.40;83.45;101760.22;5050386;28;19935;-77
2022/10/03 06:18:10;;;;;;;;;;;;;;;13.40;83.17;101765.50;5060379;28;19924;-78
2022/10/03 06:20:54;;;;;;;;;;;;;;;13.32;83.70;101763.22;5062625;28;19931;-78
2022/10/03 06:23:41;;;;;;;;;;;;;;;13.20;84.42;101766.41;5071276;28;19931;-77
2022/10/03 06:26:27;;;;;;;;;;;;;;;13.21;84.48;101767.28;5035125;28;19923;-77
2022/10/03 06:29:20;;;;;;;;;;;;;;;13.76;82.58;101766.38;5070997;28;19933;-77
2022/10/03 06:32:05;;;;;;;;;;;;;;;14.30;79.59;101762.75;5053067;28;19928;-77
2022/10/03 06:34:49;;;;;;;;;;;;;;;14.37;78.05;101758.06;5045803;28;19925;-78
2022/10/03 06:37:27;;;;;;;;;;;;;;;14.59;77.38;101759.53;5057276;28;19974;-77
2022/10/03 06:40:13;;;;;;;;;;;;;;;15.13;76.70;101762.78;5039313;28;20402;-76
2022/10/03 06:42:57;;;;;;;;;;;;;;;15.75;73.15;101780.47;5046648;28;19931;-76
2022/10/03 06:45:36;;;;;;;;;;;;;;;15.89;72.32;101785.81;5052698;28;20300;-77
2022/10/03 06:48:17;;;;;;;;;;;;;;;15.77;72.31;101783.03;5041552;28;19924;-76
2022/10/03 06:51:05;;;;;;;;;;;;;;;15.68;72.18;101781.75;5016970;28;19925;-76
2022/10/03 06:53:39;;;;;;;;;;;;;;;15.42;73.01;101777.03;5040365;28;19925;-75
2022/10/03 06:56:23;;;;;;;;;;;;;;;15.76;72.45;101781.31;5063610;28;19924;-75
2022/10/03 06:59:09;;;;;;;;;;;;;;;15.65;73.39;101781.09;5043850;28;19932;-76
2022/10/03 07:01:48;;;;;;;;;;;;;;;15.49;73.27;101789.88;5040553;28;19930;-76
2022/10/03 07:04:23;;;;;;;;;;;;;;;15.06;74.65;101779.91;5047566;28;20453;-75
2022/10/03 07:07:06;;;;;;;;;;;;;;;15.33;75.14;101781.06;5062110;28;20352;-75
2022/10/03 07:09:59;;;;;;;;;;;;;;;14.99;74.74;101792.59;5067908;28;19967;-76
2022/10/03 07:12:38;;;;;;;;;;;;;;;15.37;74.35;101794.97;5050907;28;20330;-76
2022/10/03 07:15:21;;;;;;;;;;;;;;;15.32;74.53;101803.13;5055738;28;19925;-76
2022/10/03 07:17:59;;;;;;;;;;;;;;;14.98;75.10;101803.22;5049345;28;19928;-76
2022/10/03 07:20:38;;;;;;;;;;;;;;;14.75;76.88;101800.94;5062938;28;19928;-75
2022/10/03 07:23:28;;;;;;;;;;;;;;;15.17;75.56;101800.47;5064469;28;19924;-75
2022/10/03 07:26:03;;;;;;;;;;;;;;;14.86;75.71;101802.09;5039864;28;19924;-75
2022/10/03 07:29:03;;;;;;;;;;;;;;;15.68;74.84;101810.84;5041612;28;20011;-75
2022/10/03 07:31:40;;;;;;;;;;;;;;;16.00;72.05;101812.50;4996740;28;20013;-78
2022/10/03 07:34:16;;;;;;;;;;;;;;;16.41;70.71;101811.91;4984708;28;19925;-78
2022/10/03 07:40:19;;;;;;;;;;;;;;;17.34;68.41;101810.59;5055614;28;19972;-78
2022/10/03 07:42:58;;;;;;;;;;;;;;;17.97;67.08;101818.06;5051043;28;20015;-77
2022/10/03 07:45:32;;;;;;;;;;;;;;;17.57;67.03;101822.44;5063130;28;19947;-77
2022/10/03 07:48:12;;;;;;;;;;;;;;;17.10;66.73;101825.41;5039438;28;20380;-78
2022/10/03 07:50:50;;;;;;;;;;;;;;;17.14;68.12;101824.25;5029421;28;20475;-75
2022/10/03 07:53:24;;;;;;;;;;;;;;;16.90;68.64;101829.25;5050922;28;19974;-75
2022/10/03 07:56:01;;;;;;;;;;;;;;;16.77;68.58;101833.59;5067864;28;19924;-75
2022/10/03 07:58:37;;;;;;;;;;;;;;;16.97;68.47;101842.97;5043250;28;19928;-76
2022/10/03 08:01:11;;;;;;;;;;;;;;;17.06;68.46;101842.44;5041916;28;20489;-75
2022/10/03 08:03:53;;;;;;;;;;;;;;;16.71;67.95;101843.69;5046408;28;20346;-76
2022/10/03 08:06:25;;;;;;;;;;;;;;;16.47;70.52;101857.41;5036090;28;19924;-76
2022/10/03 08:08:57;;;;;;;;;;;;;;;16.24;69.92;101846.44;5048245;28;19928;-76
2022/10/03 08:11:42;;;;;;;;;;;;;;;16.56;69.78;101845.44;5057355;28;19931;-76
2022/10/03 08:14:16;;;;;;;;;;;;;;;17.36;69.24;101847.63;5042104;28;20331;-75
2022/10/03 08:17:06;;;;;;;;;;;;;;;16.89;66.62;101854.03;5053706;28;19982;-76
2022/10/03 08:19:43;;;;;;;;;;;;;;;16.32;69.84;101844.22;5041652;28;19924;-77
2022/10/03 08:22:14;;;;;;;;;;;;;;;16.66;70.41;101845.78;5068937;28;19931;-77
2022/10/03 08:24:57;;;;;;;;;;;;;;;17.12;68.02;101836.75;5058659;28;19935;-77
2022/10/03 08:27:30;;;;;;;;;;;;;;;16.92;66.79;101840.59;5060515;28;19924;-75
2022/10/03 08:30:29;;;;;;;;;;;;;;;17.36;66.31;101847.63;5045922;28;19925;-76
2022/10/03 08:33:11;;;;;;;;;;;;;;;17.81;66.08;101855.34;4967379;28;20429;-76
2022/10/03 08:36:00;;;;;;;;;;;;;;;18.58;63.79;101859.16;4966667;28;20618;-76
2022/10/03 08:38:54;;;;;;;;;;;;;;;19.16;61.70;101848.03;5013173;28;19932;-74
2022/10/03 08:41:54;;;;;;;;;;;;;;;19.71;60.40;101852.97;5048159;28;20027;-76
2022/10/03 08:44:47;;;;;;;;;;;;;;;19.32;59.74;101857.50;5047787;28;20273;-76
2022/10/03 08:47:26;;;;;;;;;;;;;;;20.21;59.35;101851.94;5047096;28;20209;-75
2022/10/03 08:50:26;;;;;;;;;;;;;;;20.72;56.31;101852.50;5048140;28;19931;-74
2022/10/03 08:53:13;;;;;;;;;;;;;;;21.15;56.23;101858.91;5068113;28;19923;-75
2022/10/03 08:55:49;;;;;;;;;;;;;;;21.22;56.41;101853.94;5064729;28;20394;-74
2022/10/03 08:58:22;;;;;;;;;;;;;;;21.60;55.24;101853.56;5042282;28;19925;-74
2022/10/03 09:01:01;;;;;;;;;;;;;;;21.62;53.22;101851.59;5047735;28;20552;-75
2022/10/03 09:03:43;;;;;;;;;;;;;;;21.54;52.91;101849.56;5048490;28;19932;-74
2022/10/03 09:06:31;;;;;;;;;;;;;;;21.90;52.78;101855.56;5047762;28;20661;-75
2022/10/03 09:09:10;;;;;;;;;;;;;;;21.49;52.85;101856.22;5049260;28;20663;-74
2022/10/03 09:11:44;;;;;;;;;;;;;;;22.13;51.26;101860.75;5041811;28;19924;-75
2022/10/03 09:14:35;;;;;;;;;;;;;;;21.39;52.24;101858.81;5037648;28;19925;-74
2022/10/03 09:17:07;;;;;;;;;;;;;;;21.72;52.64;101864.09;5031742;28;19925;-75
2022/10/03 09:19:45;;;;;;;;;;;;;;;22.33;53.02;101857.28;5036597;28;19924;-74
2022/10/03 09:22:31;;;;;;;;;;;;;;;22.18;50.70;101858.53;5047658;28;20114;-74
2022/10/03 09:25:15;;;;;;;;;;;;;;;21.47;51.67;101859.00;5047130;28;20285;-75
2022/10/03 09:27:54;;;;;;;;;;;;;;;20.72;53.12;101869.34;4966937;28;19925;-74
2022/10/03 09:30:23;;;;;;;;;;;;;;;19.95;55.52;101872.50;5028759;28;20308;-75
2022/10/03 09:33:07;;;;;;;;;;;;;;;19.70;55.10;101867.22;5038248;28;19931;-74
2022/10/03 09:35:51;;;;;;;;;;;;;;;19.88;56.46;101861.41;5044832;28;19948;-74
2022/10/03 09:38:34;;;;;;;;;;;;;;;20.24;55.18;101857.88;5015564;28;19931;-76
2022/10/03 09:41:16;;;;;;;;;;;;;;;21.59;55.47;101846.50;5025234;28;19924;-75
2022/10/03 09:43:56;;;;;;;;;;;;;;;22.31;50.50;101853.88;5040966;28;19924;-74
2022/10/03 09:46:33;;;;;;;;;;;;;;;22.80;50.85;101847.94;5051009;28;20030;-74
2022/10/03 09:49:15;;;;;;;;;;;;;;;22.68;49.06;101848.16;5048777;28;20154;-74
2022/10/03 09:51:50;;;;;;;;;;;;;;;21.72;51.51;101865.94;5017871;28;20380;-74
2022/10/03 09:54:26;;;;;;;;;;;;;;;21.42;52.35;101857.69;5050473;28;20291;-74
2022/10/03 09:57:02;;;;;;;;;;;;;;;21.02;51.79;101857.28;5034776;28;20437;-75
2022/10/03 09:59:40;;;;;;;;;;;;;;;20.46;55.58;101869.63;5043879;28;19977;-74
2022/10/03 10:02:17;;;;;;;;;;;;;;;19.75;55.95;101871.28;5055288;28;19924;-75
2022/10/03 10:04:49;;;;;;;;;;;;;;;19.83;57.19;101865.41;5048303;28;19963;-74
2022/10/03 10:07:33;;;;;;;;;;;;;;;20.08;56.21;101867.97;5050341;28;20445;-69
2022/10/03 10:10:21;;;;;;;;;;;;;;;19.64;56.54;101878.31;5024527;28;19931;-70
2022/10/03 10:13:04;;;;;;;;;;;;;;;19.07;57.18;101869.97;5048859;28;19931;-71
2022/10/03 10:15:46;;;;;;;;;;;;;;;19.04;57.43;101872.81;5049733;28;19925;-70
2022/10/03 10:18:30;;;;;;;;;;;;;;;19.23;58.98;101870.56;5039898;28;19924;-70
2022/10/03 10:21:23;;;;;;;;;;;;;;;19.35;57.64;101867.06;5054150;28;19931;-70
2022/10/03 10:23:54;;;;;;;;;;;;;;;20.55;58.26;101860.91;5050326;28;19947;-70
2022/10/03 10:26:41;;;;;;;;;;;;;;;20.32;54.59;101863.50;5046620;28;20380;-70
2022/10/03 10:29:25;;;;;;;;;;;;;;;20.20;54.04;101861.72;5038311;28;19963;-70
2022/10/03 10:32:17;;;;;;;;;;;;;;;19.53;56.77;101856.94;5034257;28;19931;-70
2022/10/03 10:35:02;;;;;;;;;;;;;;;19.94;55.50;101852.16;5034496;28;19936;-70
2022/10/03 10:37:53;;;;;;;;;;;;;;;20.45;55.29;101865.25;5035236;28;19924;-70
2022/10/03 10:40:38;;;;;;;;;;;;;;;20.75;55.34;101862.94;5036705;28;19928;-70
2022/10/03 10:43:29;;;;;;;;;;;;;;;20.54;54.96;101859.25;5049474;28;19939;-70
2022/10/03 10:46:19;;;;;;;;;;;;;;;19.94;55.43;101865.47;5046345;28;19928;-70
2022/10/03 10:49:13;;;;;;;;;;;;;;;20.07;54.96;101854.75;5017802;28;19928;-70
2022/10/03 10:52:00;;;;;;;;;;;;;;;19.75;55.06;101859.78;5048524;28;19928;-71
2022/10/03 10:54:40;;;;;;;;;;;;;;;19.58;56.56;101852.16;5043637;28;20395;-70
2022/10/03 10:57:15;;;;;;;;;;;;;;;19.90;56.78;101854.19;5041318;28;19924;-70
2022/10/03 10:59:58;;;;;;;;;;;;;;;19.60;55.77;101844.91;5049614;28;19925;-70
2022/10/03 11:02:45;;;;;;;;;;;;;;;19.24;56.06;101848.34;5036792;28;19932;-70
2022/10/03 11:05:33;;;;;;;;;;;;;;;19.13;56.58;101850.91;5049909;28;20380;-70
2022/10/03 11:08:17;;;;;;;;;;;;;;;19.05;57.37;101854.09;5049656;28;19933;-70
2022/10/03 11:10:57;;;;;;;;;;;;;;;18.57;58.94;101855.66;5036830;28;19928;-70
2022/10/03 11:13:42;;;;;;;;;;;;;;;18.20;60.64;101862.53;5047923;28;19931;-70
2022/10/03 11:16:28;;;;;;;;;;;;;;;18.04;64.34;101863.63;5049105;28;20634;-71
2022/10/03 11:19:17;;;;;;;;;;;;;;;18.08;64.27;101854.50;5041444;28;19924;-70
2022/10/03 11:22:03;;;;;;;;;;;;;;;18.59;63.89;101851.06;5048261;28;19940;-70
2022/10/03 11:24:50;;;;;;;;;;;;;;;19.13;65.14;101846.44;5039780;28;19929;-70
2022/10/03 11:27:39;;;;;;;;;;;;;;;19.32;64.93;101851.31;5048969;28;19924;-70
2022/10/03 11:30:18;;;;;;;;;;;;;;;19.81;59.78;101846.00;5046240;28;19929;-70
2022/10/03 11:33:18;;;;;;;;;;;;;;;20.09;60.77;101839.53;5039551;28;20261;-70
2022/10/03 11:35:59;;;;;;;;;;;;;;;19.83;57.57;101844.97;4987692;28;19926;-70
2022/10/03 11:38:28;;;;;;;;;;;;;;;19.99;58.44;101836.69;4987246;28;19930;-70
2022/10/03 11:41:01;;;;;;;;;;;;;;;20.24;56.77;101849.03;5020459;28;20018;-71
2022/10/03 11:43:46;;;;;;;;;;;;;;;20.61;56.49;101839.16;5045897;28;20006;-70
2022/10/03 11:46:21;;;;;;;;;;;;;;;20.29;54.44;101844.22;5044351;28;19925;-71
2022/10/03 11:48:52;;;;;;;;;;;;;;;20.14;55.23;101845.38;5049232;28;19928;-70
2022/10/03 11:51:26;;;;;;;;;;;;;;;19.76;56.09;101853.50;5048914;28;19997;-70
2022/10/03 11:53:55;;;;;;;;;;;;;;;19.42;56.49;101850.59;5037205;28;19931;-70
2022/10/03 11:56:30;;;;;;;;;;;;;;;19.48;58.43;101848.44;5049154;28;19924;-70
2022/10/03 11:59:03;;;;;;;;;;;;;;;19.36;56.89;101836.84;5038461;28;20015;-70
2022/10/03 12:01:38;;;;;;;;;;;;;;;19.46;56.02;101835.25;5047623;28;19932;-71
2022/10/03 12:04:09;;;;;;;;;;;;;;;19.71;57.83;101831.69;5049273;28;19931;-70
2022/10/03 12:09:33;;;;;;;;;;;;;;;20.76;58.04;101820.16;5037561;28;20647;-70
2022/10/03 12:12:03;;;;;;;;;;;;;;;20.75;54.37;101820.28;5052346;28;19931;-71
2022/10/03 12:14:33;;;;;;;;;;;;;;;20.82;54.53;101818.84;5068926;28;20296;-71
2022/10/03 12:17:06;;;;;;;;;;;;;;;20.66;54.17;101815.63;5039474;28;20343;-70
2022/10/03 12:19:36;;;;;;;;;;;;;;;20.69;53.52;101818.09;5047278;28;19932;-71
2022/10/03 12:22:08;;;;;;;;;;;;;;;20.78;52.10;101820.03;5039009;28;19935;-70
2022/10/03 12:24:36;;;;;;;;;;;;;;;21.22;52.85;101798.75;5047666;28;19928;-70
2022/10/03 12:27:07;;;;;;;;;;;;;;;21.70;53.81;101807.31;5050888;28;19932;-71
2022/10/03 12:29:35;;;;;;;;;;;;;;;21.74;51.56;101807.91;5039602;28;19928;-70
2022/10/03 12:32:06;;;;;;;;;;;;;;;21.85;50.57;101805.19;5048146;28;19928;-70
2022/10/03 12:34:40;;;;;;;;;;;;;;;22.06;50.61;101791.94;5048950;28;20311;-70
2022/10/03 12:37:18;;;;;;;;;;;;;;;21.93;49.27;101797.44;5048122;28;20368;-70
2022/10/03 12:39:50;;;;;;;;;;;;;;;21.29;49.88;101799.97;5047037;28;19928;-70
2022/10/03 12:42:25;;;;;;;;;;;;;;;20.80;50.86;101799.47;5048478;28;19936;-70
2022/10/03 12:44:55;;;;;;;;;;;;;;;20.88;52.08;101799.69;5047670;28;19928;-70
2022/10/03 12:47:29;;;;;;;;;;;;;;;21.02;51.68;101799.47;5037871;28;19977;-70
2022/10/03 12:49:58;;;;;;;;;;;;;;;21.38;51.09;101792.22;5026838;28;19957;-69
2022/10/03 12:52:28;;;;;;;;;;;;;;;21.26;53.13;101800.22;5028082;28;19925;-69
2022/10/03 12:55:01;;;;;;;;;;;;;;;21.05;52.42;101799.22;5027699;28;19925;-70
2022/10/03 12:57:45;;;;;;;;;;;;;;;20.93;52.11;101796.66;5036206;28;19948;-70
2022/10/03 13:00:16;;;;;;;;;;;;;;;20.98;52.11;101800.69;5045825;28;19924;-70
2022/10/03 13:02:47;;;;;;;;;;;;;;;20.36;51.91;101806.34;5047213;28;19932;-70
2022/10/03 13:05:24;;;;;;;;;;;;;;;19.80;54.07;101818.56;5037682;28;19924;-70
2022/10/03 13:07:55;;;;;;;;;;;;;;;19.19;57.24;101827.41;5047964;28;19936;-70
2022/10/03 13:10:26;;;;;;;;;;;;;;;18.73;60.16;101831.56;5037549;28;20022;-70
2022/10/03 13:12:56;;;;;;;;;;;;;;;18.16;62.91;101828.31;5046899;28;20455;-70
2022/10/03 13:15:39;;;;;;;;;;;;;;;18.10;63.90;101829.59;5054020;28;19928;-71
2022/10/03 13:18:09;;;;;;;;;;;;;;;17.69;64.22;101824.31;5048220;28;20013;-71
2022/10/03 13:20:38;;;;;;;;;;;;;;;18.26;63.25;101821.44;5046952;28;19931;-70
2022/10/03 13:23:11;;;;;;;;;;;;;;;18.69;63.33;101822.94;5038096;28;19928;-70
2022/10/03 13:25:42;;;;;;;;;;;;;;;19.17;60.61;101816.03;5046988;28;19924;-70
2022/10/03 13:28:13;;;;;;;;;;;;;;;19.32;60.55;101817.59;5042310;28;20295;-71
2022/10/03 13:30:45;;;;;;;;;;;;;;;19.25;60.90;101813.66;5047404;28;19952;-71
2022/10/03 13:33:15;;;;;;;;;;;;;;;19.75;60.34;101817.19;5047407;28;20379;-71
2022/10/03 13:36:00;;;;;;;;;;;;;;;19.80;58.29;101809.72;5037164;28;19935;-71
2022/10/03 13:38:45;;;;;;;;;;;;;;;20.00;57.04;101816.22;5046702;28;20292;-71
2022/10/03 13:41:16;;;;;;;;;;;;;;;19.73;58.18;101819.94;5045475;28;19928;-70